createdAt,value
2023-01-11T00:01:33.428Z,100.00
2023-01-11T00:04:02.304Z,100.00
2023-01-11T00:06:31.128Z,100.00
2023-01-11T00:08:59.948Z,100.00
2023-01-11T00:11:30.923Z,100.00
2023-01-11T00:13:59.768Z,100.00
2023-01-11T00:16:28.706Z,100.00
2023-01-11T00:18:57.542Z,100.00
2023-01-11T00:21:26.834Z,100.00
2023-01-11T00:23:55.697Z,100.00
2023-01-11T00:26:24.525Z,100.00
2023-01-11T00:28:54.723Z,100.00
2023-01-11T00:31:23.716Z,100.00
2023-01-11T00:33:52.588Z,100.00
2023-01-11T00:36:21.457Z,100.00
2023-01-11T00:38:54.101Z,100.00
2023-01-11T00:41:41.713Z,100.00
2023-01-11T00:44:30.397Z,100.00
2023-01-11T00:47:16.708Z,100.00
2023-01-11T00:49:46.002Z,100.00
2023-01-11T00:52:14.827Z,100.00
2023-01-11T00:54:43.760Z,100.00
2023-01-11T00:57:12.597Z,100.00
2023-01-11T00:59:42.974Z,100.00
2023-01-11T01:02:13.220Z,100.00
2023-01-11T01:04:42.139Z,100.00
2023-01-11T01:07:11.726Z,100.00
2023-01-11T01:09:40.530Z,100.00
2023-01-11T01:12:10.295Z,100.00
2023-01-11T01:14:38.287Z,100.00
2023-01-11T01:17:09.748Z,100.00
2023-01-11T01:19:40.224Z,100.00
2023-01-11T01:22:09.226Z,100.00
2023-01-11T01:24:38.196Z,100.00
2023-01-11T01:27:06.989Z,100.00
2023-01-11T01:29:35.816Z,100.00
2023-01-11T01:32:04.735Z,100.00
2023-01-11T01:34:37.587Z,100.00
2023-01-11T01:37:06.625Z,100.00
2023-01-11T01:39:35.781Z,100.00
2023-01-11T01:42:06.018Z,100.00
2023-01-11T01:45:02.057Z,100.00
2023-01-11T01:47:43.946Z,100.00
2023-01-11T01:50:18.901Z,100.00
2023-01-11T01:52:50.107Z,100.00
2023-01-11T01:55:28.124Z,100.00
2023-01-11T01:57:59.463Z,100.00
2023-01-11T02:00:28.390Z,100.00
2023-01-11T02:03:00.384Z,100.00
2023-01-11T02:05:30.704Z,100.00
2023-01-11T02:08:03.311Z,100.00
2023-01-11T02:10:34.164Z,100.00
2023-01-11T02:13:06.917Z,100.00
2023-01-11T02:15:36.542Z,100.00
2023-01-11T02:18:11.132Z,100.00
2023-01-11T02:21:03.322Z,100.00
2023-01-11T02:24:08.065Z,100.00
2023-01-11T02:27:06.246Z,100.00
2023-01-11T02:29:48.257Z,100.00
2023-01-11T02:32:28.666Z,100.00
2023-01-11T02:35:06.761Z,100.00
2023-01-11T02:37:44.466Z,100.00
2023-01-11T02:40:18.417Z,100.00
2023-01-11T02:43:10.238Z,100.00
2023-01-11T02:45:51.445Z,100.00
2023-01-11T02:48:28.137Z,100.00
2023-01-11T02:51:04.063Z,100.00
2023-01-11T02:53:37.977Z,100.00
2023-01-11T02:56:11.153Z,100.00
2023-01-11T02:58:44.396Z,100.00
2023-01-11T03:01:15.644Z,100.00
2023-01-11T03:03:44.535Z,100.00
2023-01-11T03:06:16.813Z,100.00
2023-01-11T03:09:02.227Z,100.00
2023-01-11T03:11:55.365Z,100.00
2023-01-11T03:14:35.222Z,100.00
2023-01-11T03:17:15.431Z,100.00
2023-01-11T03:19:52.000Z,100.00
2023-01-11T03:22:29.854Z,100.00
2023-01-11T03:25:05.800Z,100.00
2023-01-11T03:27:45.622Z,100.00
2023-01-11T03:30:21.462Z,100.00
2023-01-11T03:32:55.589Z,100.00
2023-01-11T03:35:31.703Z,100.00
2023-01-11T03:38:05.796Z,100.00
2023-01-11T03:40:38.503Z,100.00
2023-01-11T03:43:14.149Z,100.00
2023-01-11T03:45:48.709Z,100.00
2023-01-11T03:48:25.032Z,100.00
2023-01-11T03:50:56.535Z,100.00
2023-01-11T03:53:28.530Z,100.00
2023-01-11T03:56:00.110Z,100.00
2023-01-11T03:58:30.593Z,100.00
2023-01-11T04:01:00.372Z,100.00
2023-01-11T04:03:31.373Z,100.00
2023-01-11T04:06:02.468Z,100.00
2023-01-11T04:08:32.331Z,100.00
2023-01-11T04:11:01.288Z,100.00
2023-01-11T04:13:30.762Z,100.00
2023-01-11T04:15:59.648Z,100.00
2023-01-11T04:18:28.474Z,100.00
2023-01-11T04:20:59.475Z,100.00
2023-01-11T04:23:28.331Z,100.00
2023-01-11T04:25:57.161Z,100.00
2023-01-11T04:28:25.942Z,100.00
2023-01-11T04:30:55.111Z,100.00
2023-01-11T04:33:23.939Z,100.00
2023-01-11T04:35:52.808Z,100.00
2023-01-11T04:38:25.086Z,100.00
2023-01-11T04:41:14.012Z,100.00
2023-01-11T04:43:41.817Z,100.00
2023-01-11T04:46:11.525Z,100.00
2023-01-11T04:48:42.048Z,100.00
2023-01-11T04:51:11.149Z,100.00
2023-01-11T04:53:41.409Z,100.00
2023-01-11T04:56:12.247Z,100.00
2023-01-11T04:58:41.133Z,100.00
2023-01-11T05:01:11.437Z,100.00
2023-01-11T05:03:40.314Z,100.00
2023-01-11T05:06:09.537Z,100.00
2023-01-11T05:08:38.627Z,100.00
2023-01-11T05:11:09.689Z,100.00
2023-01-11T05:13:45.106Z,100.00
2023-01-11T05:16:17.671Z,100.00
2023-01-11T05:18:48.198Z,100.00
2023-01-11T05:21:20.002Z,100.00
2023-01-11T05:23:49.280Z,100.00
2023-01-11T05:26:22.936Z,100.00
2023-01-11T05:28:52.831Z,100.00
2023-01-11T05:31:21.708Z,100.00
2023-01-11T05:33:50.851Z,100.00
2023-01-11T05:36:21.296Z,100.00
2023-01-11T05:38:51.455Z,100.00
2023-01-11T05:41:23.516Z,100.00
2023-01-11T05:44:10.599Z,100.00
2023-01-11T05:46:40.811Z,100.00
2023-01-11T05:49:10.708Z,100.00
2023-01-11T05:51:39.655Z,100.00
2023-01-11T05:54:11.278Z,100.00
2023-01-11T05:56:42.488Z,100.00
2023-01-11T05:59:11.926Z,100.00
2023-01-11T06:01:40.935Z,100.00
2023-01-11T06:04:09.794Z,100.00
2023-01-11T06:06:38.611Z,100.00
2023-01-11T06:09:07.492Z,100.00
2023-01-11T06:11:36.371Z,100.00
2023-01-11T06:14:06.535Z,100.00
2023-01-11T06:16:35.436Z,100.00
2023-01-11T06:19:04.795Z,100.00
2023-01-11T06:21:34.196Z,100.00
2023-01-11T06:24:04.180Z,100.00
2023-01-11T06:26:33.434Z,100.00
2023-01-11T06:29:02.313Z,100.00
2023-01-11T06:31:32.627Z,100.00
2023-01-11T06:34:02.053Z,100.00
2023-01-11T06:36:30.875Z,100.00
2023-01-11T06:38:59.733Z,100.00
2023-01-11T06:41:28.885Z,100.00
2023-01-11T06:43:57.748Z,100.00
2023-01-11T06:46:28.964Z,100.00
2023-01-11T06:48:59.512Z,100.00
2023-01-11T06:51:28.258Z,100.00
2023-01-11T06:53:57.196Z,100.00
2023-01-11T06:56:26.113Z,100.00
2023-01-11T06:58:55.045Z,100.00
2023-01-11T07:01:25.126Z,100.00
2023-01-11T07:03:54.447Z,100.00
2023-01-11T07:06:25.585Z,100.00
2023-01-11T07:08:54.989Z,100.00
2023-01-11T07:11:23.952Z,100.00
2023-01-11T07:13:52.861Z,100.00
2023-01-11T07:16:22.407Z,100.00
2023-01-11T07:18:52.171Z,100.00
2023-01-11T07:21:21.044Z,100.00
2023-01-11T07:23:53.137Z,100.00
2023-01-11T07:26:22.176Z,100.00
2023-01-11T07:28:51.059Z,100.00
2023-01-11T07:31:19.917Z,100.00
2023-01-11T07:33:48.806Z,100.00
2023-01-11T07:36:17.672Z,100.00
2023-01-11T07:38:48.158Z,100.00
2023-01-11T07:41:34.985Z,100.00
2023-01-11T07:44:13.211Z,100.00
2023-01-11T07:46:42.298Z,100.00
2023-01-11T07:49:11.786Z,100.00
2023-01-11T07:51:40.692Z,100.00
2023-01-11T07:54:09.657Z,100.00
2023-01-11T07:56:39.838Z,100.00
2023-01-11T07:59:09.833Z,100.00
2023-01-11T08:01:38.681Z,100.00
2023-01-11T08:04:08.551Z,100.00
2023-01-11T08:06:37.397Z,100.00
2023-01-11T08:09:06.688Z,100.00
2023-01-11T08:11:52.992Z,100.00
2023-01-11T08:14:41.883Z,100.00
2023-01-11T08:17:14.199Z,100.00
2023-01-11T08:19:44.086Z,100.00
2023-01-11T08:22:13.378Z,100.00
2023-01-11T08:24:42.260Z,100.00
2023-01-11T08:27:11.766Z,100.00
2023-01-11T08:29:44.284Z,100.00
2023-01-11T08:32:13.551Z,100.00
2023-01-11T08:34:42.600Z,100.00
2023-01-11T08:37:11.466Z,100.00
2023-01-11T08:39:40.510Z,100.00
2023-01-11T08:42:09.405Z,100.00
2023-01-11T08:44:38.243Z,100.00
2023-01-11T08:47:08.671Z,100.00
2023-01-11T08:49:37.527Z,100.00
2023-01-11T08:52:06.344Z,100.00
2023-01-11T08:54:35.233Z,100.00
2023-01-11T08:57:04.112Z,100.00
2023-01-11T08:59:32.961Z,100.00
2023-01-11T09:02:02.529Z,100.00
2023-01-11T09:04:34.011Z,100.00
2023-01-11T09:07:03.629Z,100.00
2023-01-11T09:09:32.760Z,100.00
2023-01-11T09:12:05.523Z,100.00
2023-01-11T09:14:34.790Z,100.00
2023-01-11T09:17:04.175Z,100.00
2023-01-11T09:19:34.517Z,100.00
2023-01-11T09:22:04.633Z,100.00
2023-01-11T09:24:33.554Z,98.64
2023-01-11T09:27:03.007Z,99.44
2023-01-11T09:29:32.114Z,96.04
2023-01-11T09:32:01.065Z,94.02
2023-01-11T09:34:30.001Z,98.01
2023-01-11T09:37:02.811Z,98.63
2023-01-11T09:39:31.686Z,92.79
2023-01-11T09:42:22.500Z,90.70
2023-01-11T09:44:56.835Z,94.93
2023-01-11T09:47:33.944Z,94.48
2023-01-11T09:50:07.827Z,94.84
2023-01-11T09:52:42.224Z,92.77
2023-01-11T09:55:17.590Z,94.52
2023-01-11T09:58:02.372Z,91.45
2023-01-11T10:00:44.165Z,93.30
2023-01-11T10:03:48.986Z,92.52
2023-01-11T10:06:23.332Z,94.58
2023-01-11T10:18:37.851Z,96.80
2023-01-11T10:18:46.498Z,94.99
2023-01-11T10:21:15.891Z,90.18
2023-01-11T10:23:50.877Z,91.32
2023-01-11T10:26:29.213Z,96.46
2023-01-11T10:29:22.016Z,97.86
2023-01-11T10:32:13.579Z,96.32
2023-01-11T10:35:14.439Z,96.56
2023-01-11T10:38:02.468Z,93.96
2023-01-11T10:40:59.743Z,94.14
2023-01-11T10:43:31.514Z,94.86
2023-01-11T10:46:04.095Z,97.38
2023-01-11T10:48:38.006Z,97.05
2023-01-11T10:51:16.135Z,96.00
2023-01-11T10:54:00.446Z,96.42
2023-01-11T10:57:03.225Z,93.34
2023-01-11T10:59:52.601Z,91.52
2023-01-11T11:02:36.495Z,93.50
2023-01-11T11:05:16.231Z,97.79
2023-01-11T11:07:53.305Z,100.00
2023-01-11T11:10:30.411Z,95.54
2023-01-11T11:13:08.880Z,94.97
2023-01-11T11:15:44.189Z,90.08
2023-01-11T11:18:13.149Z,95.72
2023-01-11T11:20:44.092Z,92.25
2023-01-11T11:23:17.565Z,92.28
2023-01-11T11:25:50.954Z,93.09
2023-01-11T11:28:28.543Z,93.93
2023-01-11T11:31:00.347Z,91.68
2023-01-11T11:33:35.130Z,89.37
2023-01-11T11:36:06.289Z,86.47
2023-01-11T11:38:37.159Z,86.45
2023-01-11T11:41:08.450Z,85.16
2023-01-11T11:43:38.852Z,84.73
2023-01-11T11:46:27.267Z,84.52
2023-01-11T11:49:12.591Z,83.53
2023-01-11T11:51:43.914Z,82.89
2023-01-11T11:54:22.169Z,78.26
2023-01-11T11:56:51.503Z,77.18
2023-01-11T11:59:22.328Z,80.56
2023-01-11T12:01:59.172Z,78.87
2023-01-11T12:04:35.885Z,82.34
2023-01-11T12:07:14.910Z,83.14
2023-01-11T12:09:47.700Z,80.48
2023-01-11T12:12:19.387Z,81.35
2023-01-11T12:15:06.858Z,81.21
2023-01-11T12:17:37.784Z,77.13
2023-01-11T12:20:28.675Z,78.35
2023-01-11T12:23:12.659Z,80.45
2023-01-11T12:26:06.314Z,79.99
2023-01-11T12:29:10.375Z,80.28
2023-01-11T12:31:51.258Z,78.30
2023-01-11T12:34:43.258Z,79.47
2023-01-11T12:37:27.397Z,78.06
2023-01-11T12:40:04.681Z,80.25
2023-01-11T12:42:58.560Z,81.19
2023-01-11T12:45:39.337Z,78.46
2023-01-11T12:48:44.922Z,77.88
2023-01-11T12:51:30.731Z,77.35
2023-01-11T12:54:11.425Z,80.09
2023-01-11T12:56:58.157Z,80.94
2023-01-11T12:59:49.819Z,74.87
2023-01-11T13:02:35.868Z,76.16
2023-01-11T13:05:17.246Z,74.78
2023-01-11T13:08:00.718Z,75.20
2023-01-11T13:10:38.013Z,75.69
2023-01-11T13:13:14.245Z,78.77
2023-01-11T13:15:53.884Z,77.15
2023-01-11T13:18:33.535Z,76.38
2023-01-11T13:21:12.283Z,76.15
2023-01-11T13:23:47.583Z,74.38
2023-01-11T13:26:24.127Z,72.66
2023-01-11T13:28:59.566Z,74.92
2023-01-11T13:31:29.407Z,76.34
2023-01-11T13:34:04.615Z,77.04
2023-01-11T13:36:39.843Z,76.61
2023-01-11T13:39:15.352Z,80.31
2023-01-11T13:41:49.011Z,83.42
2023-01-11T13:44:23.835Z,86.55
2023-01-11T13:47:04.388Z,82.38
2023-01-11T13:49:49.252Z,79.89
2023-01-11T13:52:20.653Z,85.03
2023-01-11T13:55:01.955Z,83.69
2023-01-11T13:57:39.380Z,81.19
2023-01-11T14:00:17.770Z,81.58
2023-01-11T14:02:51.703Z,86.22
2023-01-11T14:05:23.051Z,89.78
2023-01-11T14:08:05.490Z,92.48
2023-01-11T14:10:41.242Z,91.75
2023-01-11T14:13:50.792Z,92.17
2023-01-11T14:16:26.622Z,95.29
2023-01-11T14:19:03.398Z,96.48
2023-01-11T14:21:40.563Z,96.42
2023-01-11T14:24:11.689Z,98.51
2023-01-11T14:26:58.995Z,97.32
2023-01-11T14:29:59.401Z,96.47
2023-01-11T14:32:50.934Z,97.89
2023-01-11T14:35:47.978Z,99.38
2023-01-11T14:38:35.640Z,97.84
2023-01-11T14:41:44.654Z,93.16
2023-01-11T14:44:30.811Z,94.63
2023-01-11T14:47:15.637Z,93.78
2023-01-11T14:49:59.399Z,93.28
2023-01-11T14:52:39.526Z,91.71
2023-01-11T14:55:19.315Z,91.35
2023-01-11T14:58:03.429Z,93.14
2023-01-11T15:01:10.213Z,94.19
2023-01-11T15:03:50.497Z,93.81
2023-01-11T15:06:22.867Z,95.15
2023-01-11T15:08:55.080Z,98.43
2023-01-11T15:11:35.588Z,98.01
2023-01-11T15:14:29.230Z,99.29
2023-01-11T15:17:19.565Z,100.00
2023-01-11T15:19:51.469Z,100.00
2023-01-11T15:22:31.102Z,100.00
2023-01-11T15:25:03.246Z,100.00
2023-01-11T15:27:35.309Z,100.00
2023-01-11T15:30:06.426Z,100.00
2023-01-11T15:32:36.920Z,100.00
2023-01-11T15:35:34.240Z,100.00
2023-01-11T15:38:16.527Z,100.00
2023-01-11T15:40:47.093Z,100.00
2023-01-11T15:43:49.612Z,100.00
2023-01-11T15:47:02.116Z,100.00
2023-01-11T15:49:58.156Z,100.00
2023-01-11T15:53:12.349Z,100.00
2023-01-11T15:56:15.410Z,100.00
2023-01-11T15:59:31.945Z,99.34
2023-01-11T16:02:38.027Z,100.00
2023-01-11T16:05:17.125Z,100.00
2023-01-11T16:07:53.088Z,100.00
2023-01-11T16:11:00.189Z,100.00
2023-01-11T16:13:46.234Z,100.00
2023-01-11T16:16:19.014Z,100.00
2023-01-11T16:18:53.174Z,100.00
2023-01-11T16:21:32.013Z,97.38
2023-01-11T16:24:01.018Z,97.63
2023-01-11T16:26:31.464Z,100.00
2023-01-11T16:29:00.453Z,100.00
2023-01-11T16:31:53.630Z,100.00
2023-01-11T16:34:23.030Z,100.00
2023-01-11T16:36:51.837Z,100.00
2023-01-11T16:39:23.524Z,100.00
2023-01-11T16:41:58.422Z,100.00
2023-01-11T16:44:36.120Z,100.00
2023-01-11T16:47:13.321Z,100.00
2023-01-11T16:49:48.759Z,100.00
2023-01-11T16:52:49.481Z,100.00
2023-01-11T16:55:29.648Z,100.00
2023-01-11T16:58:03.175Z,100.00
2023-01-11T17:00:36.106Z,100.00
2023-01-11T17:03:21.299Z,100.00
2023-01-11T17:06:12.550Z,100.00
2023-01-11T17:08:43.135Z,100.00
2023-01-11T17:11:26.055Z,100.00
2023-01-11T17:14:20.575Z,100.00
2023-01-11T17:16:51.957Z,100.00
2023-01-11T17:19:22.762Z,100.00
2023-01-11T17:21:54.101Z,100.00
2023-01-11T17:24:26.198Z,100.00
2023-01-11T17:26:57.772Z,100.00
2023-01-11T17:29:31.547Z,100.00
2023-01-11T17:32:04.138Z,100.00
2023-01-11T17:34:35.082Z,100.00
2023-01-11T17:37:10.526Z,100.00
2023-01-11T17:39:44.061Z,100.00
2023-01-11T17:42:34.041Z,100.00
2023-01-11T17:45:21.104Z,100.00
2023-01-11T17:47:52.045Z,100.00
2023-01-11T17:50:28.142Z,100.00
2023-01-11T17:53:06.309Z,100.00
2023-01-11T17:55:35.809Z,100.00
2023-01-11T17:58:21.611Z,100.00
2023-01-11T18:01:16.430Z,100.00
2023-01-11T18:03:47.918Z,100.00
2023-01-11T18:06:24.374Z,100.00
2023-01-11T18:08:55.553Z,100.00
2023-01-11T18:11:27.178Z,100.00
2023-01-11T18:13:59.226Z,100.00
2023-01-11T18:16:29.977Z,100.00
2023-01-11T18:18:58.966Z,100.00
2023-01-11T18:21:40.168Z,100.00
2023-01-11T18:24:25.541Z,100.00
2023-01-11T18:27:16.333Z,100.00
2023-01-11T18:29:50.457Z,100.00
2023-01-11T18:32:21.876Z,100.00
2023-01-11T18:34:55.367Z,100.00
2023-01-11T18:37:24.431Z,100.00
2023-01-11T18:39:54.181Z,100.00
2023-01-11T18:42:31.380Z,100.00
2023-01-11T18:45:00.819Z,100.00
2023-01-11T18:47:31.448Z,100.00
2023-01-11T18:50:00.319Z,100.00
2023-01-11T18:52:30.037Z,100.00
2023-01-11T18:54:59.209Z,100.00
2023-01-11T18:57:28.234Z,100.00
2023-01-11T18:59:57.120Z,100.00
2023-01-11T19:02:28.048Z,100.00
2023-01-11T19:04:58.637Z,100.00
2023-01-11T19:07:27.988Z,100.00
2023-01-11T19:09:56.756Z,100.00
2023-01-11T19:12:26.296Z,100.00
2023-01-11T19:14:55.129Z,100.00
2023-01-11T19:17:23.946Z,100.00
2023-01-11T19:19:52.755Z,100.00
2023-01-11T19:22:26.272Z,100.00
2023-01-11T19:24:55.962Z,100.00
2023-01-11T19:27:24.849Z,100.00
2023-01-11T19:29:54.058Z,100.00
2023-01-11T19:32:25.151Z,100.00
2023-01-11T19:34:58.107Z,100.00
2023-01-11T19:37:30.092Z,100.00
2023-01-11T19:39:59.101Z,100.00
2023-01-11T19:42:27.920Z,100.00
2023-01-11T19:44:56.749Z,100.00
2023-01-11T19:47:25.575Z,100.00
2023-01-11T19:49:56.494Z,100.00
2023-01-11T19:52:25.600Z,100.00
2023-01-11T19:54:56.887Z,100.00
2023-01-11T19:57:25.717Z,100.00
2023-01-11T19:59:54.612Z,100.00
2023-01-11T20:02:23.513Z,100.00
2023-01-11T20:04:52.424Z,100.00
2023-01-11T20:07:21.313Z,100.00
2023-01-11T20:09:50.143Z,100.00
2023-01-11T20:12:20.699Z,100.00
2023-01-11T20:14:49.572Z,100.00
2023-01-11T20:17:21.152Z,100.00
2023-01-11T20:19:54.642Z,100.00
2023-01-11T20:22:31.347Z,100.00
2023-01-11T20:25:01.099Z,100.00
2023-01-11T20:27:31.351Z,100.00
2023-01-11T20:30:00.175Z,100.00
2023-01-11T20:32:40.786Z,100.00
2023-01-11T20:35:11.767Z,100.00
2023-01-11T20:37:41.053Z,100.00
2023-01-11T20:40:13.558Z,100.00
2023-01-11T20:42:44.742Z,100.00
2023-01-11T20:45:13.609Z,100.00
2023-01-11T20:47:42.452Z,100.00
2023-01-11T20:50:11.653Z,100.00
2023-01-11T20:52:40.548Z,100.00
2023-01-11T20:55:10.448Z,100.00
2023-01-11T20:57:39.349Z,100.00
2023-01-11T21:02:39.001Z,100.00
2023-01-11T21:05:09.253Z,100.00
2023-01-11T21:07:38.052Z,100.00
2023-01-11T21:10:09.023Z,100.00
2023-01-11T21:15:10.493Z,100.00
2023-01-11T21:17:40.724Z,100.00
2023-01-11T21:20:10.960Z,100.00
2023-01-11T21:22:39.790Z,100.00
2023-01-11T21:25:10.025Z,100.00
2023-01-11T21:27:39.096Z,100.00
2023-01-11T21:30:08.898Z,100.00
2023-01-11T21:32:37.759Z,100.00
2023-01-11T21:35:08.744Z,100.00
2023-01-11T21:37:37.552Z,100.00
2023-01-11T21:40:07.527Z,100.00
2023-01-11T21:42:36.376Z,100.00
2023-01-11T21:45:06.068Z,100.00
2023-01-11T21:47:34.877Z,100.00
2023-01-11T21:50:03.783Z,100.00
2023-01-11T21:52:34.009Z,100.00
2023-01-11T21:55:04.081Z,100.00
2023-01-11T21:57:32.949Z,100.00
2023-01-11T22:00:02.210Z,100.00
2023-01-11T22:02:41.164Z,100.00
2023-01-11T22:05:10.817Z,100.00
2023-01-11T22:07:42.380Z,100.00
2023-01-11T22:10:12.422Z,100.00
2023-01-11T22:12:41.237Z,100.00
2023-01-11T22:15:11.256Z,100.00
2023-01-11T22:17:40.037Z,100.00
2023-01-11T22:20:10.006Z,100.00
2023-01-11T22:22:40.266Z,100.00
2023-01-11T22:25:09.906Z,100.00
2023-01-11T22:27:39.162Z,100.00
2023-01-11T22:30:09.510Z,100.00
2023-01-11T22:32:38.809Z,100.00
2023-01-11T22:35:08.743Z,100.00
2023-01-11T22:37:37.578Z,100.00
2023-01-11T22:40:09.724Z,100.00
2023-01-11T22:42:39.310Z,100.00
2023-01-11T22:45:10.227Z,100.00
2023-01-11T22:47:39.067Z,100.00
2023-01-11T22:50:08.720Z,100.00
2023-01-11T22:52:37.598Z,100.00
2023-01-11T22:55:09.094Z,100.00
2023-01-11T22:57:38.023Z,100.00
2023-01-11T23:00:08.466Z,100.00
2023-01-11T23:02:37.363Z,100.00
2023-01-11T23:05:06.930Z,100.00
2023-01-11T23:07:35.820Z,100.00
2023-01-11T23:10:07.358Z,100.00
2023-01-11T23:12:55.291Z,100.00
2023-01-11T23:15:24.142Z,100.00
2023-01-11T23:17:53.093Z,100.00
2023-01-11T23:20:22.091Z,100.00
2023-01-11T23:22:51.394Z,100.00
2023-01-11T23:25:20.325Z,100.00
2023-01-11T23:27:50.627Z,100.00
2023-01-11T23:30:20.142Z,100.00
2023-01-11T23:32:48.963Z,100.00
2023-01-11T23:35:18.003Z,100.00
2023-01-11T23:37:46.810Z,100.00
2023-01-11T23:40:15.878Z,100.00
2023-01-11T23:42:43.704Z,100.00
2023-01-11T23:45:13.951Z,100.00
2023-01-11T23:47:41.821Z,100.00
2023-01-11T23:50:11.358Z,100.00
2023-01-11T23:52:40.154Z,100.00
2023-01-11T23:55:10.808Z,100.00
2023-01-11T23:57:59.548Z,100.00
